sensor_id;sensor_type;location;lat;lon;timestamp;temperature;humidity
6740;DHT22;3407;49.882;10.920;2022-08-04T00:03:23;20.50;1.00
6740;DHT22;3407;49.882;10.920;2022-08-04T00:08:29;20.20;99.90
6740;DHT22;3407;49.882;10.920;2022-08-04T00:13:30;20.00;99.90
6740;DHT22;3407;49.882;10.920;2022-08-04T00:18:51;20.00;1.00
6740;DHT22;3407;49.882;10.920;2022-08-04T00:23:44;20.00;99.90
6740;DHT22;3407;49.882;10.920;2022-08-04T00:28:40;20.10;99.90
6740;DHT22;3407;49.882;10.920;2022-08-04T00:33:37;20.10;91.00
6740;DHT22;3407;49.882;10.920;2022-08-04T00:38:33;20.10;99.90
6740;DHT22;3407;49.882;10.920;2022-08-04T00:43:32;20.00;14.80
6740;DHT22;3407;49.882;10.920;2022-08-04T00:48:51;19.90;1.00
6740;DHT22;3407;49.882;10.920;2022-08-04T00:54:05;19.80;1.00
6740;DHT22;3407;49.882;10.920;2022-08-04T00:59:23;19.60;1.00
6740;DHT22;3407;49.882;10.920;2022-08-04T01:04:49;19.40;1.00
6740;DHT22;3407;49.882;10.920;2022-08-04T01:10:03;19.30;99.90
6740;DHT22;3407;49.882;10.920;2022-08-04T01:15:15;19.30;99.90
6740;DHT22;3407;49.882;10.920;2022-08-04T01:20:19;19.40;99.90
6740;DHT22;3407;49.882;10.920;2022-08-04T01:30:35;19.20;99.90
6740;DHT22;3407;49.882;10.920;2022-08-04T01:35:45;19.10;99.90
6740;DHT22;3407;49.882;10.920;2022-08-04T01:40:43;19.20;99.90
6740;DHT22;3407;49.882;10.920;2022-08-04T01:45:40;19.20;90.90
6740;DHT22;3407;49.882;10.920;2022-08-04T01:50:36;19.20;99.90
6740;DHT22;3407;49.882;10.920;2022-08-04T01:55:33;19.20;14.50
6740;DHT22;3407;49.882;10.920;2022-08-04T02:00:30;19.20;99.90
6740;DHT22;3407;49.882;10.920;2022-08-04T02:05:26;19.10;1.00
6740;DHT22;3407;49.882;10.920;2022-08-04T02:15:45;18.70;23.40
6740;DHT22;3407;49.882;10.920;2022-08-04T02:20:47;18.70;99.90
6740;DHT22;3407;49.882;10.920;2022-08-04T02:25:48;18.70;99.90
6740;DHT22;3407;49.882;10.920;2022-08-04T02:36:30;18.60;99.90
6740;DHT22;3407;49.882;10.920;2022-08-04T02:41:26;18.60;99.90
6740;DHT22;3407;49.882;10.920;2022-08-04T02:46:23;18.50;99.90
6740;DHT22;3407;49.882;10.920;2022-08-04T02:51:26;18.50;1.00
6740;DHT22;3407;49.882;10.920;2022-08-04T02:56:24;18.40;1.00
6740;DHT22;3407;49.882;10.920;2022-08-04T03:01:22;18.40;77.80
6740;DHT22;3407;49.882;10.920;2022-08-04T03:12:00;18.40;1.00
6740;DHT22;3407;49.882;10.920;2022-08-04T03:33:23;18.20;1.00
6740;DHT22;3407;49.882;10.920;2022-08-04T03:44:45;18.10;1.00
6740;DHT22;3407;49.882;10.920;2022-08-04T03:50:01;18.10;1.00
6740;DHT22;3407;49.882;10.920;2022-08-04T04:00:40;18.00;1.00
6740;DHT22;3407;49.882;10.920;2022-08-04T04:06:00;18.00;61.70
6740;DHT22;3407;49.882;10.920;2022-08-04T04:11:17;17.80;1.00
6740;DHT22;3407;49.882;10.920;2022-08-04T04:27:25;17.80;1.00
6740;DHT22;3407;49.882;10.920;2022-08-04T04:43:09;18.50;99.90
6740;DHT22;3407;49.882;10.920;2022-08-04T04:58:38;20.20;5.10
6740;DHT22;3407;49.882;10.920;2022-08-04T05:14:40;21.40;98.30
6740;DHT22;3407;49.882;10.920;2022-08-04T05:19:54;21.70;99.90
6740;DHT22;3407;49.882;10.920;2022-08-04T05:25:00;21.60;99.90
6740;DHT22;3407;49.882;10.920;2022-08-04T05:29:58;21.70;99.90
6740;DHT22;3407;49.882;10.920;2022-08-04T05:35:04;22.60;1.00
6740;DHT22;3407;49.882;10.920;2022-08-04T05:40:05;24.40;99.90
6740;DHT22;3407;49.882;10.920;2022-08-04T05:45:02;26.40;99.90
6740;DHT22;3407;49.882;10.920;2022-08-04T05:49:59;28.60;99.90
6740;DHT22;3407;49.882;10.920;2022-08-04T05:54:57;30.00;99.90
6740;DHT22;3407;49.882;10.920;2022-08-04T05:59:54;30.80;92.70
6740;DHT22;3407;49.882;10.920;2022-08-04T06:04:52;31.90;70.90
6740;DHT22;3407;49.882;10.920;2022-08-04T06:09:48;33.20;57.00
6740;DHT22;3407;49.882;10.920;2022-08-04T06:14:46;33.50;41.60
6740;DHT22;3407;49.882;10.920;2022-08-04T06:19:43;31.30;45.10
6740;DHT22;3407;49.882;10.920;2022-08-04T06:24:39;29.60;54.10
6740;DHT22;3407;49.882;10.920;2022-08-04T06:29:37;28.30;63.60
6740;DHT22;3407;49.882;10.920;2022-08-04T06:34:35;27.70;73.80
6740;DHT22;3407;49.882;10.920;2022-08-04T06:39:32;27.70;78.40
6740;DHT22;3407;49.882;10.920;2022-08-04T06:44:29;27.60;92.30
6740;DHT22;3407;49.882;10.920;2022-08-04T06:49:25;27.70;70.90
6740;DHT22;3407;49.882;10.920;2022-08-04T06:54:21;28.30;67.20
6740;DHT22;3407;49.882;10.920;2022-08-04T06:59:17;29.50;60.00
6740;DHT22;3407;49.882;10.920;2022-08-04T07:04:14;30.20;55.00
6740;DHT22;3407;49.882;10.920;2022-08-04T07:09:10;30.40;50.90
6740;DHT22;3407;49.882;10.920;2022-08-04T07:14:06;30.20;46.70
6740;DHT22;3407;49.882;10.920;2022-08-04T07:19:02;30.70;45.40
6740;DHT22;3407;49.882;10.920;2022-08-04T07:23:58;31.40;44.90
6740;DHT22;3407;49.882;10.920;2022-08-04T07:28:54;32.10;35.20
6740;DHT22;3407;49.882;10.920;2022-08-04T07:33:49;32.50;30.90
6740;DHT22;3407;49.882;10.920;2022-08-04T07:38:45;32.60;28.20
6740;DHT22;3407;49.882;10.920;2022-08-04T07:43:41;32.60;23.90
6740;DHT22;3407;49.882;10.920;2022-08-04T07:48:36;32.50;24.10
6740;DHT22;3407;49.882;10.920;2022-08-04T07:53:33;32.30;20.30
6740;DHT22;3407;49.882;10.920;2022-08-04T07:58:29;32.40;20.10
6740;DHT22;3407;49.882;10.920;2022-08-04T08:03:25;32.50;16.60
6740;DHT22;3407;49.882;10.920;2022-08-04T08:08:21;32.50;12.10
6740;DHT22;3407;49.882;10.920;2022-08-04T08:13:17;32.90;10.40
6740;DHT22;3407;49.882;10.920;2022-08-04T08:18:13;32.80;8.60
6740;DHT22;3407;49.882;10.920;2022-08-04T08:23:08;33.30;9.50
6740;DHT22;3407;49.882;10.920;2022-08-04T08:28:05;33.80;6.60
6740;DHT22;3407;49.882;10.920;2022-08-04T08:33:04;33.70;2.90
6740;DHT22;3407;49.882;10.920;2022-08-04T08:38:02;33.90;1.70
6740;DHT22;3407;49.882;10.920;2022-08-04T09:04:26;35.20;1.00
6740;DHT22;3407;49.882;10.920;2022-08-04T09:09:36;35.70;1.00
6740;DHT22;3407;49.882;10.920;2022-08-04T09:19:55;36.10;1.00
6740;DHT22;3407;49.882;10.920;2022-08-04T09:30:06;37.20;1.00
6740;DHT22;3407;49.882;10.920;2022-08-04T09:35:22;37.70;1.00
6740;DHT22;3407;49.882;10.920;2022-08-04T09:40:47;38.40;1.00
6740;DHT22;3407;49.882;10.920;2022-08-04T09:46:05;37.60;1.00
6740;DHT22;3407;49.882;10.920;2022-08-04T09:51:13;37.10;1.00
6740;DHT22;3407;49.882;10.920;2022-08-04T10:01:21;37.30;1.00
6740;DHT22;3407;49.882;10.920;2022-08-04T10:06:34;37.70;1.00
6740;DHT22;3407;49.882;10.920;2022-08-04T10:11:37;38.50;1.00
6740;DHT22;3407;49.882;10.920;2022-08-04T10:17:00;38.40;1.00
6740;DHT22;3407;49.882;10.920;2022-08-04T10:27:29;39.00;1.00
6740;DHT22;3407;49.882;10.920;2022-08-04T10:32:33;39.70;1.00
6740;DHT22;3407;49.882;10.920;2022-08-04T10:38:21;41.00;1.00
6740;DHT22;3407;49.882;10.920;2022-08-04T10:42:57;41.90;1.00
6740;DHT22;3407;49.882;10.920;2022-08-04T10:48:04;42.90;1.00
6740;DHT22;3407;49.882;10.920;2022-08-04T10:53:06;43.70;1.00
6740;DHT22;3407;49.882;10.920;2022-08-04T10:58:05;44.30;1.00
6740;DHT22;3407;49.882;10.920;2022-08-04T11:03:30;44.40;1.00
6740;DHT22;3407;49.882;10.920;2022-08-04T11:08:34;44.70;1.00
6740;DHT22;3407;49.882;10.920;2022-08-04T11:13:41;45.70;1.00
6740;DHT22;3407;49.882;10.920;2022-08-04T11:19:05;46.10;1.00
6740;DHT22;3407;49.882;10.920;2022-08-04T11:24:13;46.80;1.00
6740;DHT22;3407;49.882;10.920;2022-08-04T11:29:27;46.80;1.00
6740;DHT22;3407;49.882;10.920;2022-08-04T11:34:26;46.60;1.00
6740;DHT22;3407;49.882;10.920;2022-08-04T11:44:31;47.90;1.00
6740;DHT22;3407;49.882;10.920;2022-08-04T11:49:39;47.20;1.00
6740;DHT22;3407;49.882;10.920;2022-08-04T11:54:36;45.30;1.00
6740;DHT22;3407;49.882;10.920;2022-08-04T11:59:34;43.70;1.00
6740;DHT22;3407;49.882;10.920;2022-08-04T12:04:46;42.80;1.00
6740;DHT22;3407;49.882;10.920;2022-08-04T12:15:28;47.50;1.00
6740;DHT22;3407;49.882;10.920;2022-08-04T12:20:27;48.60;1.00
6740;DHT22;3407;49.882;10.920;2022-08-04T12:25:31;48.70;1.00
6740;DHT22;3407;49.882;10.920;2022-08-04T12:30:33;47.90;1.00
6740;DHT22;3407;49.882;10.920;2022-08-04T12:35:38;46.20;1.00
6740;DHT22;3407;49.882;10.920;2022-08-04T12:40:44;46.30;1.00
6740;DHT22;3407;49.882;10.920;2022-08-04T12:45:45;46.20;1.00
6740;DHT22;3407;49.882;10.920;2022-08-04T12:50:47;46.10;1.00
6740;DHT22;3407;49.882;10.920;2022-08-04T12:55:47;45.40;1.00
6740;DHT22;3407;49.882;10.920;2022-08-04T13:00:53;44.50;1.00
6740;DHT22;3407;49.882;10.920;2022-08-04T13:05:53;44.20;1.00
6740;DHT22;3407;49.882;10.920;2022-08-04T13:10:52;43.80;1.00
6740;DHT22;3407;49.882;10.920;2022-08-04T13:15:56;42.80;1.00
6740;DHT22;3407;49.882;10.920;2022-08-04T13:20:52;40.90;1.00
6740;DHT22;3407;49.882;10.920;2022-08-04T13:25:50;40.40;1.00
6740;DHT22;3407;49.882;10.920;2022-08-04T13:30:52;39.90;1.00
6740;DHT22;3407;49.882;10.920;2022-08-04T13:35:48;39.60;1.00
6740;DHT22;3407;49.882;10.920;2022-08-04T13:40:45;39.40;1.00
6740;DHT22;3407;49.882;10.920;2022-08-04T13:45:41;39.10;1.00
6740;DHT22;3407;49.882;10.920;2022-08-04T13:50:37;38.70;1.00
6740;DHT22;3407;49.882;10.920;2022-08-04T13:55:35;38.50;1.00
6740;DHT22;3407;49.882;10.920;2022-08-04T14:06:14;38.00;1.00
6740;DHT22;3407;49.882;10.920;2022-08-04T14:11:10;37.70;1.00
6740;DHT22;3407;49.882;10.920;2022-08-04T14:16:18;37.10;1.00
6740;DHT22;3407;49.882;10.920;2022-08-04T14:21:16;36.80;1.00
6740;DHT22;3407;49.882;10.920;2022-08-04T14:26:15;36.40;1.00
6740;DHT22;3407;49.882;10.920;2022-08-04T14:31:13;36.20;1.00
6740;DHT22;3407;49.882;10.920;2022-08-04T14:36:10;36.10;1.00
6740;DHT22;3407;49.882;10.920;2022-08-04T14:41:06;36.10;1.00
6740;DHT22;3407;49.882;10.920;2022-08-04T14:46:04;36.00;1.00
6740;DHT22;3407;49.882;10.920;2022-08-04T14:51:00;36.00;1.00
6740;DHT22;3407;49.882;10.920;2022-08-04T14:55:58;35.80;1.00
6740;DHT22;3407;49.882;10.920;2022-08-04T15:00:56;35.60;1.00
6740;DHT22;3407;49.882;10.920;2022-08-04T15:05:54;35.50;1.00
6740;DHT22;3407;49.882;10.920;2022-08-04T15:10:49;35.40;1.00
6740;DHT22;3407;49.882;10.920;2022-08-04T15:15:45;35.30;1.00
6740;DHT22;3407;49.882;10.920;2022-08-04T15:20:41;35.10;1.00
6740;DHT22;3407;49.882;10.920;2022-08-04T15:25:44;34.90;1.00
6740;DHT22;3407;49.882;10.920;2022-08-04T15:30:41;34.90;1.00
6740;DHT22;3407;49.882;10.920;2022-08-04T15:35:39;34.80;1.00
6740;DHT22;3407;49.882;10.920;2022-08-04T15:40:55;34.80;1.00
6740;DHT22;3407;49.882;10.920;2022-08-04T15:45:55;34.70;1.00
6740;DHT22;3407;49.882;10.920;2022-08-04T15:55:55;34.60;1.00
6740;DHT22;3407;49.882;10.920;2022-08-04T16:05:49;34.50;1.00
6740;DHT22;3407;49.882;10.920;2022-08-04T16:10:47;34.40;1.00
6740;DHT22;3407;49.882;10.920;2022-08-04T16:20:44;34.50;1.00
6740;DHT22;3407;49.882;10.920;2022-08-04T16:25:42;34.30;1.00
6740;DHT22;3407;49.882;10.920;2022-08-04T16:30:41;34.30;1.00
6740;DHT22;3407;49.882;10.920;2022-08-04T16:35:37;34.20;1.00
6740;DHT22;3407;49.882;10.920;2022-08-04T16:40:33;34.10;1.00
6740;DHT22;3407;49.882;10.920;2022-08-04T16:46:02;34.00;1.00
6740;DHT22;3407;49.882;10.920;2022-08-04T16:51:10;33.80;1.00
6740;DHT22;3407;49.882;10.920;2022-08-04T16:56:10;33.80;1.00
6740;DHT22;3407;49.882;10.920;2022-08-04T17:01:08;33.80;1.00
6740;DHT22;3407;49.882;10.920;2022-08-04T17:11:01;33.70;1.00
6740;DHT22;3407;49.882;10.920;2022-08-04T17:15:59;33.60;1.00
6740;DHT22;3407;49.882;10.920;2022-08-04T17:20:58;33.50;1.00
6740;DHT22;3407;49.882;10.920;2022-08-04T17:25:58;33.50;1.00
6740;DHT22;3407;49.882;10.920;2022-08-04T17:30:55;33.30;1.00
6740;DHT22;3407;49.882;10.920;2022-08-04T17:35:54;33.20;1.00
6740;DHT22;3407;49.882;10.920;2022-08-04T17:40:56;33.40;1.00
6740;DHT22;3407;49.882;10.920;2022-08-04T17:46:15;33.30;1.00
6740;DHT22;3407;49.882;10.920;2022-08-04T17:51:14;33.30;1.00
6740;DHT22;3407;49.882;10.920;2022-08-04T18:01:39;33.10;1.00
6740;DHT22;3407;49.882;10.920;2022-08-04T18:06:35;33.00;1.00
6740;DHT22;3407;49.882;10.920;2022-08-04T18:11:30;32.90;1.00
6740;DHT22;3407;49.882;10.920;2022-08-04T18:16:26;32.80;1.00
6740;DHT22;3407;49.882;10.920;2022-08-04T18:21:21;32.60;1.00
6740;DHT22;3407;49.882;10.920;2022-08-04T18:26:17;32.40;1.00
6740;DHT22;3407;49.882;10.920;2022-08-04T18:31:13;32.20;1.00
6740;DHT22;3407;49.882;10.920;2022-08-04T18:36:09;32.00;1.00
6740;DHT22;3407;49.882;10.920;2022-08-04T18:41:04;31.70;1.00
6740;DHT22;3407;49.882;10.920;2022-08-04T18:46:00;31.10;1.00
6740;DHT22;3407;49.882;10.920;2022-08-04T18:50:56;30.70;1.00
6740;DHT22;3407;49.882;10.920;2022-08-04T18:55:51;30.30;1.00
6740;DHT22;3407;49.882;10.920;2022-08-04T19:00:47;29.90;1.00
6740;DHT22;3407;49.882;10.920;2022-08-04T19:05:42;29.60;1.00
6740;DHT22;3407;49.882;10.920;2022-08-04T19:10:38;29.20;1.00
6740;DHT22;3407;49.882;10.920;2022-08-04T19:15:33;29.00;1.00
6740;DHT22;3407;49.882;10.920;2022-08-04T19:20:29;28.70;1.00
6740;DHT22;3407;49.882;10.920;2022-08-04T19:25:25;28.50;1.00
6740;DHT22;3407;49.882;10.920;2022-08-04T19:30:20;28.30;1.00
6740;DHT22;3407;49.882;10.920;2022-08-04T19:35:16;28.10;1.00
6740;DHT22;3407;49.882;10.920;2022-08-04T19:40:11;27.90;1.00
6740;DHT22;3407;49.882;10.920;2022-08-04T19:45:09;27.70;1.00
6740;DHT22;3407;49.882;10.920;2022-08-04T19:50:05;27.50;1.00
6740;DHT22;3407;49.882;10.920;2022-08-04T19:55:02;27.40;1.00
6740;DHT22;3407;49.882;10.920;2022-08-04T19:59:58;27.30;2.30
6740;DHT22;3407;49.882;10.920;2022-08-04T20:04:54;27.20;3.40
6740;DHT22;3407;49.882;10.920;2022-08-04T20:09:49;27.00;4.20
6740;DHT22;3407;49.882;10.920;2022-08-04T20:14:45;26.90;5.50
6740;DHT22;3407;49.882;10.920;2022-08-04T20:19:40;26.80;9.40
6740;DHT22;3407;49.882;10.920;2022-08-04T20:24:36;26.60;10.80
6740;DHT22;3407;49.882;10.920;2022-08-04T20:29:31;26.50;13.40
6740;DHT22;3407;49.882;10.920;2022-08-04T20:34:27;26.30;15.10
6740;DHT22;3407;49.882;10.920;2022-08-04T20:39:22;26.10;15.90
6740;DHT22;3407;49.882;10.920;2022-08-04T20:44:18;26.00;18.60
6740;DHT22;3407;49.882;10.920;2022-08-04T20:49:13;25.90;19.20
6740;DHT22;3407;49.882;10.920;2022-08-04T20:54:09;25.80;21.50
6740;DHT22;3407;49.882;10.920;2022-08-04T20:59:05;25.70;25.00
6740;DHT22;3407;49.882;10.920;2022-08-04T21:04:00;25.60;28.30
6740;DHT22;3407;49.882;10.920;2022-08-04T21:09:14;25.50;40.20
6740;DHT22;3407;49.882;10.920;2022-08-04T21:14:10;25.30;55.60
6740;DHT22;3407;49.882;10.920;2022-08-04T21:19:05;25.20;68.50
6740;DHT22;3407;49.882;10.920;2022-08-04T21:24:01;25.00;80.60
6740;DHT22;3407;49.882;10.920;2022-08-04T21:28:57;24.80;90.20
6740;DHT22;3407;49.882;10.920;2022-08-04T21:33:52;24.60;94.00
6740;DHT22;3407;49.882;10.920;2022-08-04T21:38:48;24.50;96.30
6740;DHT22;3407;49.882;10.920;2022-08-04T21:43:44;24.40;99.90
6740;DHT22;3407;49.882;10.920;2022-08-04T21:48:40;24.30;99.90
6740;DHT22;3407;49.882;10.920;2022-08-04T21:53:35;24.10;99.90
6740;DHT22;3407;49.882;10.920;2022-08-04T21:58:31;24.10;99.90
6740;DHT22;3407;49.882;10.920;2022-08-04T22:03:26;24.10;99.90
6740;DHT22;3407;49.882;10.920;2022-08-04T22:08:22;24.00;99.90
6740;DHT22;3407;49.882;10.920;2022-08-04T22:13:18;24.00;99.90
6740;DHT22;3407;49.882;10.920;2022-08-04T22:18:13;23.90;99.90
6740;DHT22;3407;49.882;10.920;2022-08-04T22:23:09;23.70;99.90
6740;DHT22;3407;49.882;10.920;2022-08-04T22:28:04;23.50;99.90
6740;DHT22;3407;49.882;10.920;2022-08-04T22:33:04;23.50;99.90
6740;DHT22;3407;49.882;10.920;2022-08-04T22:37:59;23.40;99.90
6740;DHT22;3407;49.882;10.920;2022-08-04T22:42:55;23.30;99.90
6740;DHT22;3407;49.882;10.920;2022-08-04T22:47:55;23.20;99.90
6740;DHT22;3407;49.882;10.920;2022-08-04T22:52:50;23.10;99.90
6740;DHT22;3407;49.882;10.920;2022-08-04T22:57:46;23.10;99.90
6740;DHT22;3407;49.882;10.920;2022-08-04T23:02:41;23.00;99.90
6740;DHT22;3407;49.882;10.920;2022-08-04T23:07:37;23.00;99.90
6740;DHT22;3407;49.882;10.920;2022-08-04T23:12:32;23.00;99.90
6740;DHT22;3407;49.882;10.920;2022-08-04T23:17:28;23.00;99.90
6740;DHT22;3407;49.882;10.920;2022-08-04T23:22:23;22.90;99.90
6740;DHT22;3407;49.882;10.920;2022-08-04T23:27:19;22.80;99.90
6740;DHT22;3407;49.882;10.920;2022-08-04T23:32:15;22.70;99.90
6740;DHT22;3407;49.882;10.920;2022-08-04T23:37:11;22.60;1.00
6740;DHT22;3407;49.882;10.920;2022-08-04T23:42:07;22.50;1.00
6740;DHT22;3407;49.882;10.920;2022-08-04T23:47:03;22.50;1.00
6740;DHT22;3407;49.882;10.920;2022-08-04T23:51:59;22.30;1.00
6740;DHT22;3407;49.882;10.920;2022-08-04T23:56:55;22.20;1.00
